createdAt,value
2022-10-19T00:01:07.926Z,86.61
2022-10-19T00:03:35.441Z,86.95
2022-10-19T00:06:15.854Z,87.20
2022-10-19T00:08:43.041Z,87.05
2022-10-19T00:11:09.716Z,86.81
2022-10-19T00:13:36.728Z,86.96
2022-10-19T00:16:11.376Z,86.62
2022-10-19T00:18:39.301Z,86.81
2022-10-19T00:21:09.049Z,86.95
2022-10-19T00:23:35.997Z,87.47
2022-10-19T00:26:03.397Z,86.93
2022-10-19T00:28:30.043Z,87.59
2022-10-19T00:30:56.487Z,87.24
2022-10-19T00:33:22.892Z,87.14
2022-10-19T00:35:51.076Z,87.09
2022-10-19T00:38:18.640Z,87.22
2022-10-19T00:40:45.892Z,87.17
2022-10-19T00:43:19.274Z,86.84
2022-10-19T00:45:45.980Z,86.66
2022-10-19T00:48:17.184Z,87.10
2022-10-19T00:50:45.688Z,86.43
2022-10-19T00:53:12.301Z,86.82
2022-10-19T00:55:39.631Z,86.89
2022-10-19T00:58:06.069Z,86.80
2022-10-19T01:00:33.986Z,87.04
2022-10-19T01:03:01.127Z,86.80
2022-10-19T01:05:28.547Z,86.48
2022-10-19T01:07:56.976Z,86.93
2022-10-19T01:10:32.723Z,86.77
2022-10-19T01:13:23.139Z,86.99
2022-10-19T01:16:02.392Z,87.25
2022-10-19T01:18:55.295Z,87.27
2022-10-19T01:21:26.137Z,86.34
2022-10-19T01:24:04.548Z,86.84
2022-10-19T01:26:42.046Z,86.66
2022-10-19T01:29:32.571Z,87.00
2022-10-19T01:32:23.925Z,87.06
2022-10-19T01:35:12.453Z,87.07
2022-10-19T01:37:48.684Z,87.03
2022-10-19T01:40:26.746Z,87.02
2022-10-19T01:43:18.103Z,87.30
2022-10-19T01:45:48.671Z,87.33
2022-10-19T01:48:22.886Z,87.12
2022-10-19T01:50:57.784Z,86.81
2022-10-19T01:53:26.417Z,86.94
2022-10-19T01:55:55.050Z,87.12
2022-10-19T01:58:27.949Z,87.44
2022-10-19T02:00:57.133Z,87.70
2022-10-19T02:03:25.767Z,87.54
2022-10-19T02:05:54.031Z,87.56
2022-10-19T02:08:27.526Z,86.95
2022-10-19T02:10:56.411Z,87.54
2022-10-19T02:13:24.584Z,87.31
2022-10-19T02:15:54.684Z,88.13
2022-10-19T02:18:28.419Z,87.98
2022-10-19T02:20:55.535Z,87.67
2022-10-19T02:23:25.765Z,87.94
2022-10-19T02:25:52.720Z,87.87
2022-10-19T02:28:19.811Z,87.59
2022-10-19T02:30:46.731Z,87.66
2022-10-19T02:33:13.479Z,87.92
2022-10-19T02:35:40.436Z,87.78
2022-10-19T02:38:10.699Z,88.06
2022-10-19T02:40:41.866Z,87.74
2022-10-19T02:43:13.890Z,88.22
2022-10-19T02:45:54.064Z,88.34
2022-10-19T02:48:24.806Z,88.21
2022-10-19T02:50:52.048Z,88.00
2022-10-19T02:53:18.751Z,88.88
2022-10-19T02:55:47.979Z,88.14
2022-10-19T02:58:14.437Z,88.29
2022-10-19T03:00:41.141Z,88.53
2022-10-19T03:03:07.631Z,88.47
2022-10-19T03:05:33.977Z,88.05
2022-10-19T03:08:00.358Z,88.36
2022-10-19T03:10:26.844Z,87.84
2022-10-19T03:12:53.224Z,88.46
2022-10-19T03:15:19.760Z,88.29
2022-10-19T03:17:46.134Z,88.75
2022-10-19T03:20:12.523Z,88.56
2022-10-19T03:22:38.857Z,88.81
2022-10-19T03:25:05.647Z,88.97
2022-10-19T03:27:32.458Z,88.60
2022-10-19T03:30:00.105Z,88.70
2022-10-19T03:32:26.709Z,88.04
2022-10-19T03:34:53.098Z,88.26
2022-10-19T03:37:19.496Z,88.91
2022-10-19T03:39:45.878Z,88.39
2022-10-19T03:42:12.224Z,88.85
2022-10-19T03:44:38.570Z,88.67
2022-10-19T03:47:04.906Z,88.78
2022-10-19T03:49:31.286Z,88.58
2022-10-19T03:51:57.599Z,88.90
2022-10-19T03:54:27.217Z,88.84
2022-10-19T03:56:53.932Z,88.72
2022-10-19T03:59:20.326Z,88.74
2022-10-19T04:01:46.732Z,89.12
2022-10-19T04:04:16.578Z,88.84
2022-10-19T04:06:45.036Z,89.04
2022-10-19T04:09:14.076Z,89.25
2022-10-19T04:11:41.301Z,89.13
2022-10-19T04:16:39.479Z,89.20
2022-10-19T04:19:05.893Z,89.41
2022-10-19T04:21:34.907Z,89.11
2022-10-19T04:24:08.051Z,89.25
2022-10-19T04:26:38.794Z,89.55
2022-10-19T04:29:05.553Z,89.63
2022-10-19T04:31:32.007Z,89.69
2022-10-19T04:33:58.362Z,89.64
2022-10-19T04:36:24.774Z,89.80
2022-10-19T04:38:51.469Z,89.78
2022-10-19T04:41:20.020Z,89.98
2022-10-19T04:43:47.765Z,89.82
2022-10-19T04:46:17.007Z,90.26
2022-10-19T04:48:46.131Z,90.01
2022-10-19T04:51:13.291Z,89.49
2022-10-19T04:53:41.107Z,89.97
2022-10-19T04:56:11.712Z,89.94
2022-10-19T04:58:38.194Z,90.13
2022-10-19T05:01:13.826Z,89.74
2022-10-19T05:03:40.465Z,90.05
2022-10-19T05:06:08.121Z,90.13
2022-10-19T05:08:35.036Z,89.95
2022-10-19T05:11:04.016Z,89.95
2022-10-19T05:13:32.757Z,90.34
2022-10-19T05:16:01.070Z,90.21
2022-10-19T05:18:27.894Z,90.43
2022-10-19T05:21:23.479Z,90.54
2022-10-19T05:23:54.536Z,90.25
2022-10-19T05:26:26.299Z,90.42
2022-10-19T05:28:57.910Z,90.16
2022-10-19T05:31:28.043Z,90.46
2022-10-19T05:33:58.432Z,90.71
2022-10-19T05:36:34.251Z,90.04
2022-10-19T05:39:04.395Z,89.67
2022-10-19T05:41:30.799Z,90.32
2022-10-19T05:43:59.510Z,90.53
2022-10-19T05:46:27.512Z,89.97
2022-10-19T05:48:56.123Z,89.86
2022-10-19T05:51:23.904Z,89.76
2022-10-19T05:53:50.761Z,89.91
2022-10-19T05:56:20.600Z,89.77
2022-10-19T05:58:47.990Z,90.05
2022-10-19T06:01:15.344Z,89.85
2022-10-19T06:03:41.862Z,90.18
2022-10-19T06:06:09.385Z,89.98
2022-10-19T06:08:36.686Z,90.01
2022-10-19T06:11:11.428Z,89.85
2022-10-19T06:13:39.121Z,90.15
2022-10-19T06:16:07.319Z,89.90
2022-10-19T06:18:33.812Z,89.69
2022-10-19T06:21:08.854Z,89.74
2022-10-19T06:23:35.783Z,90.00
2022-10-19T06:26:04.592Z,89.99
2022-10-19T06:28:31.249Z,89.91
2022-10-19T06:30:58.698Z,90.18
2022-10-19T06:33:26.743Z,90.11
2022-10-19T06:35:53.218Z,89.72
2022-10-19T06:38:19.647Z,90.06
2022-10-19T06:40:46.203Z,89.94
2022-10-19T06:43:12.574Z,89.87
2022-10-19T06:45:39.011Z,89.38
2022-10-19T06:48:07.661Z,90.05
2022-10-19T06:50:35.249Z,90.14
2022-10-19T06:53:01.638Z,89.74
2022-10-19T06:55:28.068Z,89.46
2022-10-19T06:57:54.455Z,89.19
2022-10-19T07:00:20.883Z,89.17
2022-10-19T07:02:47.244Z,89.55
2022-10-19T07:05:13.720Z,89.78
2022-10-19T07:07:40.133Z,89.43
2022-10-19T07:10:06.828Z,89.46
2022-10-19T07:12:33.328Z,89.42
2022-10-19T07:15:00.839Z,89.81
2022-10-19T07:17:27.205Z,90.11
2022-10-19T07:19:53.666Z,89.91
2022-10-19T07:22:25.660Z,89.78
2022-10-19T07:24:54.716Z,89.57
2022-10-19T07:27:21.163Z,89.78
2022-10-19T07:29:47.623Z,89.86
2022-10-19T07:32:13.997Z,89.73
2022-10-19T07:34:40.396Z,89.11
2022-10-19T07:37:06.844Z,89.40
2022-10-19T07:39:34.641Z,89.30
2022-10-19T07:42:01.032Z,89.04
2022-10-19T07:44:27.847Z,89.26
2022-10-19T07:46:54.254Z,88.55
2022-10-19T07:49:20.762Z,88.92
2022-10-19T07:51:47.229Z,89.08
2022-10-19T07:54:13.889Z,88.97
2022-10-19T07:56:40.439Z,88.62
2022-10-19T07:59:07.062Z,88.93
2022-10-19T08:01:38.193Z,88.52
2022-10-19T08:06:51.185Z,88.31
2022-10-19T08:09:40.141Z,88.40
2022-10-19T08:12:06.460Z,88.30
2022-10-19T08:14:32.975Z,88.15
2022-10-19T08:16:59.890Z,88.56
2022-10-19T08:19:26.265Z,88.51
2022-10-19T08:21:52.701Z,88.37
2022-10-19T08:24:20.373Z,88.04
2022-10-19T08:26:47.685Z,88.22
2022-10-19T08:29:18.312Z,88.43
2022-10-19T08:31:46.452Z,88.04
2022-10-19T08:34:13.859Z,88.22
2022-10-19T08:39:12.742Z,87.71
2022-10-19T08:44:41.355Z,88.00
2022-10-19T08:47:35.638Z,88.09
2022-10-19T08:50:03.697Z,88.14
2022-10-19T08:52:34.580Z,88.00
2022-10-19T08:55:13.083Z,87.51
2022-10-19T08:57:53.441Z,88.14
2022-10-19T09:00:34.089Z,87.51
2022-10-19T09:03:37.752Z,87.29
2022-10-19T09:06:37.105Z,87.93
2022-10-19T09:09:05.349Z,88.20
2022-10-19T09:11:38.380Z,87.76
2022-10-19T09:14:14.990Z,88.22
2022-10-19T09:16:42.579Z,87.54
2022-10-19T09:19:26.189Z,87.76
2022-10-19T09:22:04.330Z,87.92
2022-10-19T09:24:43.841Z,87.95
2022-10-19T09:27:22.398Z,87.27
2022-10-19T09:29:57.884Z,86.74
2022-10-19T09:32:30.890Z,86.66
2022-10-19T09:35:02.353Z,87.25
2022-10-19T09:40:01.760Z,86.50
2022-10-19T09:42:33.297Z,86.24
2022-10-19T09:45:14.026Z,86.97
2022-10-19T09:47:45.829Z,86.43
2022-10-19T09:50:26.651Z,85.90
2022-10-19T09:52:56.235Z,85.89
2022-10-19T09:55:34.057Z,86.25
2022-10-19T09:58:03.922Z,86.52
2022-10-19T10:00:42.780Z,86.53
2022-10-19T10:03:22.362Z,86.05
2022-10-19T10:05:49.565Z,86.46
2022-10-19T10:08:22.512Z,86.37
2022-10-19T10:11:11.218Z,86.85
2022-10-19T10:13:41.589Z,86.25
2022-10-19T10:16:11.363Z,85.78
2022-10-19T10:18:50.451Z,86.70
2022-10-19T10:21:32.435Z,85.98
2022-10-19T10:24:20.474Z,85.28
2022-10-19T10:26:49.626Z,85.13
2022-10-19T10:29:22.217Z,85.48
2022-10-19T10:32:12.239Z,85.51
2022-10-19T10:35:01.325Z,85.66
2022-10-19T10:37:47.671Z,85.01
2022-10-19T10:40:27.933Z,85.29
2022-10-19T10:42:57.683Z,85.02
2022-10-19T10:45:29.120Z,84.81
2022-10-19T10:47:56.877Z,84.59
2022-10-19T10:50:31.259Z,84.22
2022-10-19T10:53:34.601Z,85.34
2022-10-19T10:56:01.590Z,83.64
2022-10-19T10:58:31.727Z,83.78
2022-10-19T11:01:06.678Z,84.05
2022-10-19T11:03:37.778Z,83.09
2022-10-19T11:06:04.314Z,82.91
2022-10-19T11:08:49.245Z,82.18
2022-10-19T11:11:28.344Z,82.28
2022-10-19T11:14:08.247Z,82.80
2022-10-19T11:16:39.841Z,83.30
2022-10-19T11:19:11.701Z,82.95
2022-10-19T11:21:44.225Z,82.91
2022-10-19T11:24:15.613Z,82.39
2022-10-19T11:27:17.600Z,81.57
2022-10-19T11:30:10.660Z,82.24
2022-10-19T11:33:05.857Z,81.75
2022-10-19T11:35:36.112Z,79.90
2022-10-19T11:38:29.557Z,79.94
2022-10-19T11:41:21.712Z,80.94
2022-10-19T11:44:14.449Z,79.46
2022-10-19T11:47:17.824Z,80.06
2022-10-19T11:49:59.280Z,77.81
2022-10-19T11:52:51.568Z,76.34
2022-10-19T11:55:37.886Z,77.71
2022-10-19T11:58:32.377Z,76.52
2022-10-19T12:01:39.297Z,75.56
2022-10-19T12:04:11.614Z,74.98
2022-10-19T12:06:55.056Z,76.56
2022-10-19T12:09:56.739Z,75.89
2022-10-19T12:12:43.409Z,76.01
2022-10-19T12:15:21.419Z,75.01
2022-10-19T12:17:51.600Z,76.30
2022-10-19T12:20:25.851Z,76.53
2022-10-19T12:22:52.643Z,75.97
2022-10-19T12:25:19.986Z,77.49
2022-10-19T12:27:49.058Z,77.14
2022-10-19T12:30:19.740Z,76.73
2022-10-19T12:33:23.158Z,74.87
2022-10-19T12:36:01.595Z,73.79
2022-10-19T12:38:50.821Z,73.61
2022-10-19T12:41:18.732Z,73.78
2022-10-19T12:44:02.657Z,72.72
2022-10-19T12:46:48.354Z,72.98
2022-10-19T12:49:28.007Z,72.03
2022-10-19T12:51:56.192Z,71.96
2022-10-19T12:54:25.738Z,71.50
2022-10-19T12:56:54.586Z,71.57
2022-10-19T12:59:44.807Z,70.82
2022-10-19T13:02:29.265Z,71.23
2022-10-19T13:04:55.825Z,71.13
2022-10-19T13:07:26.509Z,70.13
2022-10-19T13:10:18.805Z,70.75
2022-10-19T13:12:47.291Z,70.44
2022-10-19T13:15:40.069Z,70.13
2022-10-19T13:18:34.098Z,70.94
2022-10-19T13:21:02.540Z,70.46
2022-10-19T13:23:30.046Z,70.47
2022-10-19T13:26:32.835Z,70.25
2022-10-19T13:28:59.493Z,70.81
2022-10-19T13:31:32.936Z,70.93
2022-10-19T13:33:59.461Z,69.82
2022-10-19T13:36:26.664Z,70.01
2022-10-19T13:38:59.048Z,70.24
2022-10-19T13:41:46.843Z,71.08
2022-10-19T13:44:13.868Z,70.79
2022-10-19T13:46:58.535Z,70.26
2022-10-19T13:49:46.974Z,71.55
2022-10-19T13:52:48.758Z,70.92
2022-10-19T13:55:21.101Z,72.05
2022-10-19T13:58:13.813Z,71.64
2022-10-19T14:01:01.980Z,70.96
2022-10-19T14:03:43.619Z,72.36
2022-10-19T14:06:24.716Z,71.53
2022-10-19T14:09:12.262Z,70.65
2022-10-19T14:11:42.184Z,71.41
2022-10-19T14:14:11.625Z,70.31
2022-10-19T14:16:57.100Z,70.96
2022-10-19T14:19:47.975Z,70.52
2022-10-19T14:22:23.551Z,71.58
2022-10-19T14:24:50.088Z,70.22
2022-10-19T14:27:24.785Z,70.70
2022-10-19T14:29:53.372Z,70.73
2022-10-19T14:32:29.500Z,70.04
2022-10-19T14:37:36.806Z,71.65
2022-10-19T14:40:26.608Z,71.97
2022-10-19T14:42:56.708Z,72.06
2022-10-19T14:45:26.564Z,71.29
2022-10-19T14:47:57.718Z,72.25
2022-10-19T14:51:05.815Z,70.91
2022-10-19T14:53:34.957Z,71.18
2022-10-19T14:56:15.494Z,70.96
2022-10-19T14:58:49.046Z,70.95
2022-10-19T15:01:18.477Z,71.07
2022-10-19T15:03:46.187Z,71.23
2022-10-19T15:06:25.562Z,71.76
2022-10-19T15:08:55.476Z,71.61
2022-10-19T15:11:29.774Z,71.65
2022-10-19T15:14:21.967Z,71.40
2022-10-19T15:16:56.736Z,71.46
2022-10-19T15:19:30.189Z,70.40
2022-10-19T15:22:09.215Z,71.90
2022-10-19T15:24:38.101Z,71.48
2022-10-19T15:27:29.967Z,72.50
2022-10-19T15:29:59.335Z,72.57
2022-10-19T15:32:31.871Z,71.60
2022-10-19T15:34:58.933Z,71.95
2022-10-19T15:39:56.758Z,72.34
2022-10-19T15:42:30.833Z,71.58
2022-10-19T15:44:57.237Z,71.83
2022-10-19T15:47:34.002Z,72.25
2022-10-19T15:50:30.603Z,72.79
2022-10-19T15:53:03.469Z,73.39
2022-10-19T15:58:25.653Z,73.01
2022-10-19T16:01:29.152Z,72.89
2022-10-19T16:04:04.028Z,73.07
2022-10-19T16:06:50.882Z,73.05
2022-10-19T16:09:32.799Z,73.92
2022-10-19T16:12:27.345Z,73.67
2022-10-19T16:15:26.261Z,73.41
2022-10-19T16:18:04.269Z,73.63
2022-10-19T16:20:38.565Z,72.74
2022-10-19T16:23:07.114Z,73.32
2022-10-19T16:28:37.129Z,73.91
2022-10-19T16:33:56.355Z,73.46
2022-10-19T16:36:22.860Z,73.91
2022-10-19T16:38:49.260Z,73.53
2022-10-19T16:41:16.678Z,73.40
2022-10-19T16:43:43.421Z,74.03
2022-10-19T16:46:11.323Z,73.93
2022-10-19T16:48:38.224Z,74.18
2022-10-19T16:51:07.690Z,74.40
2022-10-19T16:53:35.030Z,74.98
2022-10-19T16:56:06.674Z,74.71
2022-10-19T16:58:33.142Z,74.93
2022-10-19T17:01:02.457Z,74.77
2022-10-19T17:03:28.880Z,75.40
2022-10-19T17:05:55.352Z,74.78
2022-10-19T17:08:23.927Z,75.51
2022-10-19T17:10:57.171Z,75.42
2022-10-19T17:13:23.726Z,75.82
2022-10-19T17:15:50.077Z,75.78
2022-10-19T17:18:16.472Z,76.09
2022-10-19T17:20:42.866Z,75.70
2022-10-19T17:23:09.485Z,75.49
2022-10-19T17:25:36.670Z,76.18
2022-10-19T17:28:03.098Z,75.55
2022-10-19T17:30:29.451Z,76.20
2022-10-19T17:32:55.825Z,76.04
2022-10-19T17:35:22.599Z,76.07
2022-10-19T17:37:48.992Z,76.68
2022-10-19T17:40:15.472Z,76.43
2022-10-19T17:42:41.875Z,76.51
2022-10-19T17:45:08.726Z,76.49
2022-10-19T17:47:35.285Z,77.19
2022-10-19T17:50:01.932Z,76.82
2022-10-19T17:52:28.337Z,77.30
2022-10-19T17:55:13.390Z,77.54
2022-10-19T17:57:40.116Z,77.53
2022-10-19T18:00:07.354Z,76.78
2022-10-19T18:02:35.407Z,77.75
2022-10-19T18:05:02.521Z,77.46
2022-10-19T18:07:33.969Z,77.79
2022-10-19T18:10:03.733Z,77.62
2022-10-19T18:12:30.280Z,78.00
2022-10-19T18:14:58.276Z,78.11
2022-10-19T18:22:27.275Z,78.56
2022-10-19T18:24:53.708Z,78.49
2022-10-19T18:27:20.165Z,78.42
2022-10-19T18:29:46.597Z,78.07
2022-10-19T18:32:13.023Z,78.83
2022-10-19T18:34:39.399Z,79.14
2022-10-19T18:37:07.134Z,78.49
2022-10-19T18:39:33.500Z,78.72
2022-10-19T18:42:00.017Z,78.65
2022-10-19T18:44:29.482Z,78.44
2022-10-19T18:46:57.959Z,78.63
2022-10-19T18:49:27.437Z,79.16
2022-10-19T18:51:55.702Z,78.90
2022-10-19T18:54:24.269Z,79.09
2022-10-19T18:56:50.690Z,79.49
2022-10-19T18:59:17.494Z,79.78
2022-10-19T19:01:44.009Z,79.05
2022-10-19T19:04:10.736Z,79.77
2022-10-19T19:06:38.287Z,79.30
2022-10-19T19:09:08.522Z,79.84
2022-10-19T19:11:38.183Z,80.01
2022-10-19T19:14:08.206Z,79.67
2022-10-19T19:16:37.117Z,79.85
2022-10-19T19:19:04.881Z,79.93
2022-10-19T19:21:32.157Z,79.66
2022-10-19T19:24:01.857Z,79.87
2022-10-19T19:26:31.365Z,80.58
2022-10-19T19:28:57.953Z,80.53
2022-10-19T19:31:25.658Z,80.91
2022-10-19T19:33:52.120Z,80.92
2022-10-19T19:36:19.135Z,80.55
2022-10-19T19:38:46.178Z,81.02
2022-10-19T19:41:14.699Z,81.00
2022-10-19T19:43:41.450Z,80.55
2022-10-19T19:46:12.864Z,80.85
2022-10-19T19:48:40.885Z,80.95
2022-10-19T19:51:19.007Z,81.07
2022-10-19T19:53:46.588Z,80.63
2022-10-19T19:56:14.212Z,80.36
2022-10-19T19:58:41.494Z,80.92
2022-10-19T20:01:20.372Z,81.45
2022-10-19T20:03:47.757Z,81.05
2022-10-19T20:06:17.885Z,81.28
2022-10-19T20:08:46.934Z,81.38
2022-10-19T20:11:16.050Z,81.33
2022-10-19T20:13:45.001Z,81.74
2022-10-19T20:16:25.117Z,81.93
2022-10-19T20:19:07.133Z,81.80
2022-10-19T20:21:33.689Z,81.61
2022-10-19T20:24:00.816Z,81.64
2022-10-19T20:26:28.096Z,82.29
2022-10-19T20:28:55.098Z,81.89
2022-10-19T20:31:22.198Z,82.13
2022-10-19T20:33:49.251Z,82.42
2022-10-19T20:36:18.627Z,82.55
2022-10-19T20:38:50.626Z,82.94
2022-10-19T20:41:18.572Z,82.78
2022-10-19T20:43:45.374Z,82.67
2022-10-19T20:46:17.785Z,82.78
2022-10-19T20:48:45.570Z,82.53
2022-10-19T20:51:14.104Z,82.98
2022-10-19T20:53:41.535Z,83.05
2022-10-19T20:56:10.101Z,83.21
2022-10-19T20:58:40.157Z,83.47
2022-10-19T21:01:14.297Z,82.84
2022-10-19T21:03:53.139Z,83.36
2022-10-19T21:06:21.259Z,83.47
2022-10-19T21:08:48.125Z,83.25
2022-10-19T21:11:19.745Z,83.55
2022-10-19T21:13:47.405Z,83.58
2022-10-19T21:16:16.350Z,83.15
2022-10-19T21:18:44.243Z,83.62
2022-10-19T21:21:22.702Z,83.28
2022-10-19T21:23:53.807Z,83.87
2022-10-19T21:26:20.699Z,83.62
2022-10-19T21:28:48.647Z,83.91
2022-10-19T21:31:16.613Z,84.00
2022-10-19T21:33:43.937Z,83.88
2022-10-19T21:36:11.617Z,83.46
2022-10-19T21:38:38.400Z,83.64
2022-10-19T21:41:20.967Z,84.10
2022-10-19T21:43:50.533Z,83.84
2022-10-19T21:46:19.224Z,84.06
2022-10-19T21:48:45.692Z,84.00
2022-10-19T21:51:14.774Z,83.84
2022-10-19T21:53:41.125Z,84.04
2022-10-19T21:56:07.451Z,84.07
2022-10-19T21:58:33.846Z,84.60
2022-10-19T22:01:07.800Z,84.37
2022-10-19T22:03:34.664Z,84.08
2022-10-19T22:06:01.045Z,84.14
2022-10-19T22:08:27.504Z,84.46
2022-10-19T22:11:04.891Z,84.27
2022-10-19T22:13:31.285Z,84.34
2022-10-19T22:16:03.190Z,84.10
2022-10-19T22:18:29.619Z,84.59
2022-10-19T22:20:56.031Z,84.20
2022-10-19T22:23:24.325Z,84.49
2022-10-19T22:25:50.693Z,84.81
2022-10-19T22:28:17.228Z,84.59
2022-10-19T22:30:45.054Z,84.69
2022-10-19T22:33:11.410Z,84.76
2022-10-19T22:35:37.798Z,84.47
2022-10-19T22:38:04.127Z,85.03
2022-10-19T22:40:30.471Z,84.97
2022-10-19T22:42:56.828Z,84.36
2022-10-19T22:45:23.499Z,84.96
2022-10-19T22:47:50.078Z,85.17
2022-10-19T22:50:19.357Z,85.49
2022-10-19T22:52:45.796Z,85.17
2022-10-19T22:55:12.299Z,84.96
2022-10-19T22:57:38.867Z,85.15
2022-10-19T23:00:05.780Z,84.88
2022-10-19T23:02:32.382Z,84.79
2022-10-19T23:04:59.280Z,85.29
2022-10-19T23:07:25.714Z,84.97
2022-10-19T23:09:55.674Z,85.68
2022-10-19T23:12:22.259Z,85.39
2022-10-19T23:14:48.733Z,85.83
2022-10-19T23:17:15.344Z,85.82
2022-10-19T23:19:41.881Z,85.16
2022-10-19T23:22:08.267Z,85.20
2022-10-19T23:24:34.623Z,85.44
2022-10-19T23:27:01.016Z,85.55
2022-10-19T23:29:27.443Z,85.29
2022-10-19T23:31:53.840Z,86.16
2022-10-19T23:34:20.159Z,85.20
2022-10-19T23:36:47.763Z,85.29
2022-10-19T23:39:14.427Z,85.43
2022-10-19T23:41:40.827Z,85.34
2022-10-19T23:44:09.340Z,85.23
2022-10-19T23:46:35.843Z,85.79
2022-10-19T23:49:02.231Z,85.66
2022-10-19T23:51:28.600Z,85.48
2022-10-19T23:53:55.125Z,85.54
2022-10-19T23:56:24.913Z,85.53
2022-10-19T23:58:52.447Z,85.55
